Terminal Aerodrome Forecast
Issued by NWS Cleveland, OH

Home | Current Version | Previous Version | Graphics & Text | Print | Product List | Glossary On
Versions: 1 2 3 4 5 6 7 8 9 10 11 12 13 14 15 16 17 18 19
856
FTUS41 KCLE 221739
TAFCAK
TAF
KCAK 221739Z 2218/2318 08007KT P6SM BKN080
     FM230300 07009KT 5SM BR BKN015
     FM230900 07011KT 3SM -RA BR BKN008=

USA.gov is the U.S. government's official web portal to all federal, state and local government web resources and services.